Time;durP1;ratioP1;P1;durP2;ratioP2;P2;SDS_P1;SDS_P2;PMS_P1;PMS_P2;Temp;Humidity;BMP_temperature;BMP_pressure;BME280_temperature;BME280_humidity;BME280_pressure;Samples;Min_cycle;Max_cycle;Signal;HPM_P1;HPM_P2
2021/09/28 00:01:00;;;;;;;10.75;2.25;;;;;;;;;;4269786;33;20179;-79
2021/09/28 00:04:13;;;;;;;14.35;2.20;;;;;;;;;;4304405;33;20198;-79
2021/09/28 00:10:14;;;;;;;13.43;2.60;;;;;;;;;;4253882;33;20221;-79
2021/09/28 00:12:35;;;;;;;12.65;2.40;;;;;;;;;;4250430;33;20204;-79
2021/09/28 00:15:41;;;;;;;8.10;2.20;;;;;;;;;;4257452;33;20542;-79
2021/09/28 00:18:41;;;;;;;;;;;;;;;;;;;;;
2021/09/28 00:21:43;;;;;;;;;;;;;;;;;;;;;
2021/09/28 00:24:15;;;;;;;15.63;3.20;;;;;;;;;;4317190;33;20167;-79
2021/09/28 00:27:01;;;;;;;13.45;3.50;;;;;;;;;;4304028;33;20194;-79
2021/09/28 00:33:15;;;;;;;;;;;;;;;;;;;;;
2021/09/28 00:35:53;;;;;;;18.55;3.00;;;;;;;;;;4331603;33;20144;-79
2021/09/28 00:41:21;;;;;;;19.80;2.72;;;;;;;;;;4293581;33;20148;-79
2021/09/28 00:44:04;;;;;;;17.42;3.17;;;;;;;;;;4303995;33;20156;-79
2021/09/28 00:46:53;;;;;;;;;;;;;;;;;;;;;
2021/09/28 00:49:24;;;;;;;15.20;3.03;;;;;;;;;;4324357;33;20190;-79
2021/09/28 00:52:08;;;;;;;13.30;2.97;;;;;;;;;;4318169;33;20251;-79
2021/09/28 00:58:19;;;;;;;18.23;3.37;;;;;;;;;;4317883;33;20235;-79
2021/09/28 01:01:14;;;;;;;16.45;3.10;;;;;;;;;;4256056;33;20248;-79
2021/09/28 01:04:06;;;;;;;17.20;3.10;;;;;;;;;;4266659;33;20252;-80
2021/09/28 01:06:52;;;;;;;11.77;3.28;;;;;;;;;;4328995;33;20191;-79
2021/09/28 01:12:45;;;;;;;15.35;2.85;;;;;;;;;;4331702;33;20595;-79
2021/09/28 01:15:10;;;;;;;11.27;2.80;;;;;;;;;;4321985;33;20691;-79
2021/09/28 01:17:37;;;;;;;13.57;3.05;;;;;;;;;;4331158;33;20166;-79
2021/09/28 01:23:14;;;;;;;13.73;3.72;;;;;;;;;;4271742;33;20173;-79
2021/09/28 01:26:13;;;;;;;;;;;;;;;;;;;;;
2021/09/28 01:28:41;;;;;;;16.05;3.22;;;;;;;;;;4325707;33;20455;-79
2021/09/28 01:31:28;;;;;;;14.73;2.83;;;;;;;;;;4318136;33;20174;-79
2021/09/28 01:34:04;;;;;;;14.65;3.00;;;;;;;;;;4316812;33;20168;-79
2021/09/28 01:37:16;;;;;;;;;;;;;;;;;;;;;
2021/09/28 01:40:14;;;;;;;14.52;3.08;;;;;;;;;;4330088;33;20226;-79
2021/09/28 01:42:43;;;;;;;12.30;3.00;;;;;;;;;;4273917;33;20184;-79
2021/09/28 01:45:08;;;;;;;15.23;3.30;;;;;;;;;;4333983;33;20171;-79
2021/09/28 01:48:10;;;;;;;10.90;3.20;;;;;;;;;;4345307;33;20143;-79
2021/09/28 01:54:18;;;;;;;;;;;;;;;;;;;;;
2021/09/28 01:57:08;;;;;;;18.85;3.25;;;;;;;;;;4339179;33;20522;-79
2021/09/28 02:00:03;;;;;;;;;;;;;;;;;;;;;
2021/09/28 02:03:01;;;;;;;16.45;3.40;;;;;;;;;;4341660;33;20163;-79
2021/09/28 02:05:36;;;;;;;12.13;3.35;;;;;;;;;;4332201;33;20217;-79
2021/09/28 02:35:47;;;;;;;16.50;3.25;;;;;;;;;;4261039;33;20236;-79
2021/09/28 02:38:27;;;;;;;24.95;3.85;;;;;;;;;;4242343;33;20177;-79
2021/09/28 02:41:23;;;;;;;21.40;3.78;;;;;;;;;;4228082;34;20162;-80
2021/09/28 02:47:06;;;;;;;17.95;3.70;;;;;;;;;;4239383;33;20630;-79
2021/09/28 02:49:53;;;;;;;15.65;3.72;;;;;;;;;;4244768;33;20797;-79
2021/09/28 02:52:38;;;;;;;14.00;3.10;;;;;;;;;;4253410;33;20169;-79
2021/09/28 02:55:29;;;;;;;19.35;4.25;;;;;;;;;;4281414;33;20167;-79
2021/09/28 02:58:17;;;;;;;13.38;3.67;;;;;;;;;;4319379;33;20156;-79
2021/09/28 03:04:14;;;;;;;12.70;4.18;;;;;;;;;;4302329;33;20152;-79
2021/09/28 03:06:29;;;;;;;17.12;3.90;;;;;;;;;;4324560;33;20206;-79
2021/09/28 03:09:06;;;;;;;12.25;3.97;;;;;;;;;;4329310;33;20176;-79
2021/09/28 03:14:42;;;;;;;15.18;4.32;;;;;;;;;;4292963;33;20276;-79
2021/09/28 03:17:21;;;;;;;16.65;4.25;;;;;;;;;;4331868;33;20516;-79
2021/09/28 03:20:11;;;;;;;18.35;4.80;;;;;;;;;;4334557;33;20237;-79
2021/09/28 03:22:45;;;;;;;22.02;5.12;;;;;;;;;;4328515;33;20219;-79
2021/09/28 03:25:43;;;;;;;15.77;5.07;;;;;;;;;;4334352;33;20225;-79
2021/09/28 03:28:37;;;;;;;;;;;;;;;;;;;;;
2021/09/28 03:31:03;;;;;;;17.85;4.68;;;;;;;;;;4347934;33;20147;-79
2021/09/28 03:33:47;;;;;;;;;;;;;;;;;;;;;
2021/09/28 03:36:24;;;;;;;21.48;4.78;;;;;;;;;;4347261;33;20155;-79
2021/09/28 03:38:49;;;;;;;18.37;4.85;;;;;;;;;;4333000;33;20184;-79
2021/09/28 03:41:44;;;;;;;19.37;5.95;;;;;;;;;;4334487;33;20332;-79
2021/09/28 03:44:53;;;;;;;20.37;5.62;;;;;;;;;;4347497;33;20174;-79
2021/09/28 03:50:29;;;;;;;18.25;5.75;;;;;;;;;;4241847;33;20247;-79
2021/09/28 03:52:55;;;;;;;17.95;6.05;;;;;;;;;;4244550;33;20169;-79
2021/09/28 03:55:32;;;;;;;19.15;5.12;;;;;;;;;;4269275;33;20188;-79
2021/09/28 03:57:59;;;;;;;13.82;4.65;;;;;;;;;;4306559;33;20159;-79
2021/09/28 04:00:47;;;;;;;15.35;5.25;;;;;;;;;;4333572;33;20225;-78
2021/09/28 04:03:13;;;;;;;15.00;5.30;;;;;;;;;;4333608;33;20155;-78
2021/09/28 04:05:45;;;;;;;20.17;6.65;;;;;;;;;;4333815;33;20211;-79
2021/09/28 04:08:32;;;;;;;16.83;5.62;;;;;;;;;;4329606;33;20197;-78
2021/09/28 04:10:59;;;;;;;19.12;5.43;;;;;;;;;;4333923;33;20202;-79
2021/09/28 04:22:55;;;;;;;25.50;5.20;;;;;;;;;;4216280;34;20168;-79
2021/09/28 04:32:38;;;;;;;18.58;4.53;;;;;;;;;;4219147;33;20204;-79
2021/09/28 04:35:50;;;;;;;;;;;;;;;;;;;;;
2021/09/28 04:41:41;;;;;;;14.38;5.57;;;;;;;;;;4229274;33;20190;-78
2021/09/28 04:44:16;;;;;;;;;;;;;;;;;;;;;
2021/09/28 04:46:58;;;;;;;17.50;5.10;;;;;;;;;;4299067;33;20156;-79
2021/09/28 04:49:47;;;;;;;17.80;5.62;;;;;;;;;;4318883;33;20222;-79
2021/09/28 04:52:30;;;;;;;20.48;5.55;;;;;;;;;;4329913;33;20198;-80
2021/09/28 04:55:04;;;;;;;17.42;5.07;;;;;;;;;;4318466;33;20191;-80
2021/09/28 05:04:33;;;;;;;21.85;5.57;;;;;;;;;;4194832;34;20175;-80
2021/09/28 05:07:16;;;;;;;14.18;5.22;;;;;;;;;;4217546;34;20253;-79
2021/09/28 05:13:05;;;;;;;17.20;5.47;;;;;;;;;;4235482;33;20547;-79
2021/09/28 05:15:24;;;;;;;14.48;4.87;;;;;;;;;;4240963;33;20596;-79
2021/09/28 05:17:49;;;;;;;18.37;5.22;;;;;;;;;;4244592;33;20165;-79
2021/09/28 05:20:25;;;;;;;17.00;5.15;;;;;;;;;;4237402;33;20229;-79
2021/09/28 05:22:53;;;;;;;13.77;4.28;;;;;;;;;;4243169;33;20165;-80
2021/09/28 05:25:31;;;;;;;;;;;;;;;;;;;;;
2021/09/28 05:28:03;;;;;;;23.12;4.90;;;;;;;;;;4234778;33;20150;-79
2021/09/28 05:30:49;;;;;;;;;;;;;;;;;;;;;
2021/09/28 05:33:28;;;;;;;13.98;5.37;;;;;;;;;;4243566;33;20130;-80
2021/09/28 05:38:55;;;;;;;20.67;5.20;;;;;;;;;;4308470;33;20590;-79
2021/09/28 05:44:26;;;;;;;20.67;5.25;;;;;;;;;;4242636;33;20180;-80
2021/09/28 05:47:07;;;;;;;15.80;5.45;;;;;;;;;;4231335;33;20474;-80
2021/09/28 05:49:55;;;;;;;24.37;5.37;;;;;;;;;;4230498;33;20166;-79
2021/09/28 05:57:59;;;;;;;20.52;5.70;;;;;;;;;;4276860;33;20214;-79
2021/09/28 06:00:28;;;;;;;17.60;6.30;;;;;;;;;;4316162;33;20136;-80
2021/09/28 06:02:56;;;;;;;18.70;4.90;;;;;;;;;;4303218;33;20155;-80
2021/09/28 06:05:21;;;;;;;15.90;5.07;;;;;;;;;;4302484;33;20183;-79
2021/09/28 06:07:47;;;;;;;20.12;5.93;;;;;;;;;;4302510;33;20191;-79
2021/09/28 06:10:12;;;;;;;13.70;4.80;;;;;;;;;;4316108;33;20175;-79
2021/09/28 06:12:54;;;;;;;23.45;5.45;;;;;;;;;;4317231;33;20155;-80
2021/09/28 06:15:36;;;;;;;18.75;4.85;;;;;;;;;;4317091;33;20202;-80
2021/09/28 06:18:10;;;;;;;16.75;4.62;;;;;;;;;;4315976;33;20188;-79
2021/09/28 06:20:35;;;;;;;16.80;4.93;;;;;;;;;;4319195;33;20154;-79
2021/09/28 06:23:11;;;;;;;18.12;5.80;;;;;;;;;;4321897;33;20225;-79
2021/09/28 06:25:39;;;;;;;17.08;5.35;;;;;;;;;;4321661;33;20191;-79
2021/09/28 06:28:05;;;;;;;17.00;4.57;;;;;;;;;;4321884;33;20215;-79
2021/09/28 06:30:30;;;;;;;18.37;5.05;;;;;;;;;;4321995;33;20160;-79
2021/09/28 06:33:03;;;;;;;11.20;4.43;;;;;;;;;;4321757;33;20337;-79
2021/09/28 06:35:28;;;;;;;17.37;5.50;;;;;;;;;;4322260;33;20160;-80
2021/09/28 06:37:54;;;;;;;14.43;4.57;;;;;;;;;;4322176;33;20191;-79
2021/09/28 06:40:28;;;;;;;17.70;5.68;;;;;;;;;;4321984;33;20163;-80
2021/09/28 06:43:10;;;;;;;23.12;5.40;;;;;;;;;;4321950;33;20578;-79
2021/09/28 06:45:45;;;;;;;13.55;4.60;;;;;;;;;;4322332;33;20164;-79
2021/09/28 06:48:11;;;;;;;16.92;4.43;;;;;;;;;;4322558;33;20187;-79
2021/09/28 06:50:39;;;;;;;16.83;4.57;;;;;;;;;;4322076;33;20198;-81
2021/09/28 06:53:06;;;;;;;14.00;4.37;;;;;;;;;;4322107;33;20582;-80
2021/09/28 06:55:52;;;;;;;14.93;4.10;;;;;;;;;;4335048;33;20191;-81
2021/09/28 06:58:28;;;;;;;15.45;4.25;;;;;;;;;;4334967;33;20176;-79
2021/09/28 07:00:53;;;;;;;11.93;4.03;;;;;;;;;;4321971;33;20205;-79
2021/09/28 07:03:20;;;;;;;14.15;4.03;;;;;;;;;;4321737;33;20182;-80
2021/09/28 07:05:51;;;;;;;12.32;4.00;;;;;;;;;;4334728;33;20144;-80
2021/09/28 07:08:16;;;;;;;16.55;4.25;;;;;;;;;;4321264;33;20171;-80
2021/09/28 07:10:42;;;;;;;14.32;4.07;;;;;;;;;;4321915;33;20258;-80
2021/09/28 07:13:10;;;;;;;15.52;3.50;;;;;;;;;;4322102;33;20701;-79
2021/09/28 07:15:38;;;;;;;13.05;3.53;;;;;;;;;;4335039;33;20191;-80
2021/09/28 07:18:11;;;;;;;14.52;3.78;;;;;;;;;;4321347;33;20617;-79
2021/09/28 07:20:58;;;;;;;12.73;3.95;;;;;;;;;;4322578;33;20195;-80
2021/09/28 07:23:25;;;;;;;14.63;4.15;;;;;;;;;;4321225;33;20226;-79
2021/09/28 07:25:58;;;;;;;17.52;4.12;;;;;;;;;;4321825;33;20187;-79
2021/09/28 07:28:35;;;;;;;13.23;3.80;;;;;;;;;;4321838;33;20211;-79
2021/09/28 07:31:56;;;;;;;13.85;4.10;;;;;;;;;;4321891;33;20148;-80
2021/09/28 07:34:12;;;;;;;13.02;3.92;;;;;;;;;;4306630;33;20163;-80
2021/09/28 07:36:46;;;;;;;11.02;3.67;;;;;;;;;;4316528;33;20247;-80
2021/09/28 07:39:30;;;;;;;15.80;5.87;;;;;;;;;;4330042;33;20178;-80
2021/09/28 07:42:05;;;;;;;11.25;3.70;;;;;;;;;;4328542;33;20199;-79
2021/09/28 07:44:42;;;;;;;15.25;3.45;;;;;;;;;;4319778;33;20253;-80
2021/09/28 07:47:37;;;;;;;17.37;3.97;;;;;;;;;;4325314;33;20176;-80
2021/09/28 07:50:12;;;;;;;12.65;3.70;;;;;;;;;;4332948;33;20178;-80
2021/09/28 07:52:50;;;;;;;10.73;3.08;;;;;;;;;;4331601;33;20162;-79
2021/09/28 07:58:38;;;;;;;12.18;4.05;;;;;;;;;;4286863;33;20543;-80
2021/09/28 08:04:27;;;;;;;15.05;4.00;;;;;;;;;;4286724;33;20689;-80
2021/09/28 08:09:41;;;;;;;9.20;3.00;;;;;;;;;;4340793;33;20558;-80
2021/09/28 08:12:30;;;;;;;8.50;3.15;;;;;;;;;;4334643;33;20178;-80
2021/09/28 08:15:04;;;;;;;12.98;3.53;;;;;;;;;;4326693;33;20194;-80
2021/09/28 08:17:48;;;;;;;15.43;3.55;;;;;;;;;;4326288;33;20201;-80
2021/09/28 08:20:16;;;;;;;15.98;3.20;;;;;;;;;;4324986;33;20231;-78
2021/09/28 08:22:45;;;;;;;12.95;2.90;;;;;;;;;;4346961;33;20473;-79
2021/09/28 08:25:13;;;;;;;12.25;3.25;;;;;;;;;;4318854;33;20160;-80
2021/09/28 08:30:55;;;;;;;13.65;2.92;;;;;;;;;;4332727;33;20213;-80
2021/09/28 08:34:08;;;;;;;10.65;3.42;;;;;;;;;;4333403;33;20210;-80
2021/09/28 08:36:15;;;;;;;10.82;3.30;;;;;;;;;;4324492;33;20226;-80
2021/09/28 08:39:03;;;;;;;14.10;3.50;;;;;;;;;;4318284;33;20163;-80
2021/09/28 08:41:35;;;;;;;12.25;3.03;;;;;;;;;;4338976;33;20147;-80
2021/09/28 08:44:05;;;;;;;13.50;3.17;;;;;;;;;;4332160;33;20182;-79
2021/09/28 08:47:01;;;;;;;16.37;2.60;;;;;;;;;;4332972;33;20582;-80
2021/09/28 08:49:36;;;;;;;8.13;2.87;;;;;;;;;;4332634;33;20190;-80
2021/09/28 08:52:03;;;;;;;11.10;3.00;;;;;;;;;;4333063;33;20222;-80
2021/09/28 08:54:29;;;;;;;14.07;3.08;;;;;;;;;;4332400;33;20218;-80
2021/09/28 08:56:57;;;;;;;15.70;3.35;;;;;;;;;;4340513;33;20198;-80
2021/09/28 08:59:37;;;;;;;13.77;3.00;;;;;;;;;;4317884;33;20640;-79
2021/09/28 09:02:12;;;;;;;11.10;2.97;;;;;;;;;;4318301;33;20623;-79
2021/09/28 09:04:57;;;;;;;10.23;3.15;;;;;;;;;;4318587;33;20558;-79
2021/09/28 09:10:18;;;;;;;11.02;2.53;;;;;;;;;;4334506;33;20155;-80
2021/09/28 09:12:43;;;;;;;10.70;3.05;;;;;;;;;;4332695;33;20175;-79
2021/09/28 09:15:44;;;;;;;10.38;3.17;;;;;;;;;;4331921;33;20168;-79
2021/09/28 09:18:11;;;;;;;9.05;2.70;;;;;;;;;;4332513;33;20221;-80
2021/09/28 09:20:46;;;;;;;5.87;2.40;;;;;;;;;;4332575;33;20324;-82
2021/09/28 09:23:28;;;;;;;9.35;2.78;;;;;;;;;;4332690;33;20228;-79
2021/09/28 09:26:19;;;;;;;11.35;2.67;;;;;;;;;;4346348;33;20135;-80
2021/09/28 09:28:58;;;;;;;15.80;3.28;;;;;;;;;;4309647;33;20190;-80
2021/09/28 09:31:39;;;;;;;13.05;2.95;;;;;;;;;;4319885;33;20180;-80
2021/09/28 09:34:34;;;;;;;13.05;2.58;;;;;;;;;;4332453;33;20174;-79
2021/09/28 09:37:03;;;;;;;9.18;2.70;;;;;;;;;;4319246;33;20160;-79
2021/09/28 09:39:55;;;;;;;9.88;2.28;;;;;;;;;;4345973;33;20139;-79
2021/09/28 09:42:30;;;;;;;;;;;;;;;;;;;;;
2021/09/28 09:45:18;;;;;;;8.43;2.03;;;;;;;;;;4342946;33;20257;-79
2021/09/28 09:51:25;;;;;;;12.77;2.67;;;;;;;;;;4263029;33;20176;-79
2021/09/28 09:54:03;;;;;;;8.80;2.35;;;;;;;;;;4332041;33;20179;-80
2021/09/28 09:56:47;;;;;;;9.30;2.60;;;;;;;;;;4331973;33;20155;-78
2021/09/28 09:59:22;;;;;;;11.12;2.40;;;;;;;;;;4331898;33;20237;-79
2021/09/28 10:01:58;;;;;;;12.73;2.55;;;;;;;;;;4332124;33;20210;-80
2021/09/28 10:04:47;;;;;;;11.45;2.45;;;;;;;;;;4328382;33;20213;-80
2021/09/28 10:07:15;;;;;;;11.25;2.35;;;;;;;;;;4285155;33;20229;-80
2021/09/28 10:09:48;;;;;;;9.98;2.35;;;;;;;;;;4335567;33;20179;-80
2021/09/28 10:12:13;;;;;;;6.32;2.00;;;;;;;;;;4332566;33;20205;-80
2021/09/28 10:15:04;;;;;;;8.77;2.92;;;;;;;;;;4331689;33;20158;-79
2021/09/28 10:17:43;;;;;;;11.88;2.10;;;;;;;;;;4331093;33;20182;-79
2021/09/28 10:20:21;;;;;;;10.77;2.87;;;;;;;;;;4330387;33;20148;-80
2021/09/28 10:22:56;;;;;;;13.65;3.40;;;;;;;;;;4332002;33;20191;-82
2021/09/28 10:28:16;;;;;;;11.88;2.65;;;;;;;;;;4341946;33;20197;-79
2021/09/28 10:30:44;;;;;;;9.95;2.40;;;;;;;;;;4315352;33;20165;-81
2021/09/28 10:33:28;;;;;;;12.20;2.95;;;;;;;;;;4307732;33;20291;-79
2021/09/28 10:39:00;;;;;;;8.07;2.35;;;;;;;;;;4307399;33;20156;-80
2021/09/28 10:41:29;;;;;;;12.70;2.30;;;;;;;;;;4301887;33;20160;-80
2021/09/28 10:43:55;;;;;;;11.32;2.05;;;;;;;;;;4302905;33;20415;-79
2021/09/28 10:46:44;;;;;;;7.80;2.30;;;;;;;;;;4311034;33;20218;-80
2021/09/28 10:49:30;;;;;;;11.65;2.45;;;;;;;;;;4309819;33;20153;-79
2021/09/28 10:52:17;;;;;;;6.47;1.67;;;;;;;;;;4301549;33;20191;-79
2021/09/28 10:55:09;;;;;;;10.23;2.55;;;;;;;;;;4301442;33;20168;-79
2021/09/28 10:58:13;;;;;;;;;;;;;;;;;;;;;
2021/09/28 11:01:14;;;;;;;9.07;2.22;;;;;;;;;;4316909;33;20138;-81
2021/09/28 11:16:08;;;;;;;9.07;2.33;;;;;;;;;;4261010;33;20203;-81
2021/09/28 11:21:59;;;;;;;;;;;;;;;;;;;;;
2021/09/28 11:25:13;;;;;;;9.50;2.28;;;;;;;;;;4350143;33;20159;-81
2021/09/28 11:27:59;;;;;;;8.43;1.65;;;;;;;;;;4329894;33;20198;-80
2021/09/28 11:30:28;;;;;;;5.47;1.70;;;;;;;;;;4336554;33;20214;-82
2021/09/28 11:33:01;;;;;;;11.02;2.20;;;;;;;;;;4334870;33;20186;-81
2021/09/28 11:35:27;;;;;;;9.25;1.87;;;;;;;;;;4334867;33;20238;-80
2021/09/28 11:38:23;;;;;;;10.45;1.70;;;;;;;;;;4334406;33;20160;-82
2021/09/28 11:40:56;;;;;;;7.03;1.70;;;;;;;;;;4347163;33;20217;-81
2021/09/28 11:43:24;;;;;;;6.60;1.55;;;;;;;;;;4334541;33;20527;-82
2021/09/28 11:49:09;;;;;;;10.77;2.03;;;;;;;;;;4273223;33;20239;-76
2021/09/28 11:52:16;;;;;;;7.50;1.67;;;;;;;;;;4337070;33;20167;-82
2021/09/28 11:54:50;;;;;;;8.73;2.08;;;;;;;;;;4347603;33;20204;-82
2021/09/28 11:57:25;;;;;;;9.60;1.42;;;;;;;;;;4334474;33;20158;-82
2021/09/28 11:59:50;;;;;;;6.65;1.67;;;;;;;;;;4335001;33;20178;-82
2021/09/28 12:02:18;;;;;;;7.25;1.60;;;;;;;;;;4334011;33;20171;-82
2021/09/28 12:10:37;;;;;;;4.85;1.23;;;;;;;;;;4347330;33;20155;-81
2021/09/28 12:13:16;;;;;;;6.87;1.60;;;;;;;;;;4328987;33;20171;-81
2021/09/28 12:16:00;;;;;;;5.55;1.35;;;;;;;;;;4334953;33;20197;-81
2021/09/28 12:18:25;;;;;;;5.20;1.33;;;;;;;;;;4333711;33;20219;-81
2021/09/28 12:20:50;;;;;;;8.80;1.70;;;;;;;;;;4334249;33;20222;-81
2021/09/28 12:23:25;;;;;;;9.25;1.92;;;;;;;;;;4334826;33;20195;-81
2021/09/28 12:25:56;;;;;;;7.85;1.50;;;;;;;;;;4334288;33;20316;-80
2021/09/28 12:28:22;;;;;;;7.95;1.25;;;;;;;;;;4331795;33;20258;-80
2021/09/28 12:30:55;;;;;;;7.00;1.65;;;;;;;;;;4331929;33;20497;-82
2021/09/28 12:33:40;;;;;;;7.18;1.40;;;;;;;;;;4345295;33;20179;-82
2021/09/28 12:36:08;;;;;;;5.85;1.30;;;;;;;;;;4328264;33;20294;-82
2021/09/28 12:38:38;;;;;;;6.43;1.77;;;;;;;;;;4320911;33;20160;-82
2021/09/28 12:41:07;;;;;;;7.45;2.08;;;;;;;;;;4331860;33;20633;-81
2021/09/28 12:43:37;;;;;;;5.37;1.42;;;;;;;;;;4333134;33;20168;-81
2021/09/28 12:46:11;;;;;;;11.02;1.73;;;;;;;;;;4333262;33;20166;-82
2021/09/28 12:48:46;;;;;;;6.07;1.50;;;;;;;;;;4333386;33;20183;-81
2021/09/28 12:51:18;;;;;;;5.43;1.62;;;;;;;;;;4331070;33;20516;-80
2021/09/28 12:53:43;;;;;;;5.10;2.25;;;;;;;;;;4318280;33;20231;-80
2021/09/28 12:56:08;;;;;;;6.65;1.45;;;;;;;;;;4331994;33;20624;-80
2021/09/28 12:58:34;;;;;;;7.15;1.83;;;;;;;;;;4332934;33;20187;-82
2021/09/28 13:01:00;;;;;;;8.82;1.75;;;;;;;;;;4332899;33;20470;-81
2021/09/28 13:03:27;;;;;;;8.20;1.50;;;;;;;;;;4332650;33;20193;-81
2021/09/28 13:06:03;;;;;;;8.75;1.75;;;;;;;;;;4332855;33;20171;-81
2021/09/28 13:08:31;;;;;;;9.40;1.90;;;;;;;;;;4328573;33;20187;-80
2021/09/28 13:11:01;;;;;;;9.10;1.92;;;;;;;;;;4317902;33;20223;-82
2021/09/28 13:13:31;;;;;;;11.12;1.87;;;;;;;;;;4330185;33;20275;-81
2021/09/28 13:15:57;;;;;;;7.30;1.60;;;;;;;;;;4333316;33;20232;-82
2021/09/28 13:18:32;;;;;;;7.03;1.85;;;;;;;;;;4332180;33;20520;-81
2021/09/28 13:21:05;;;;;;;7.45;1.87;;;;;;;;;;4332733;33;20205;-81
2021/09/28 13:23:34;;;;;;;5.57;1.70;;;;;;;;;;4332388;33;20168;-81
2021/09/28 13:25:59;;;;;;;8.65;2.03;;;;;;;;;;4332188;33;20183;-80
2021/09/28 13:28:27;;;;;;;8.38;2.35;;;;;;;;;;4332780;33;20156;-81
2021/09/28 13:31:08;;;;;;;;;;;;;;;;;;;;;
2021/09/28 13:33:33;;;;;;;5.93;1.35;;;;;;;;;;4344633;33;20173;-80
2021/09/28 13:35:59;;;;;;;6.45;1.80;;;;;;;;;;4332038;33;20152;-81
2021/09/28 13:38:24;;;;;;;4.43;1.50;;;;;;;;;;4331267;33;20173;-80
2021/09/28 13:40:50;;;;;;;5.62;1.60;;;;;;;;;;4331711;33;20182;-82
2021/09/28 13:43:16;;;;;;;7.50;1.83;;;;;;;;;;4345023;33;20150;-81
2021/09/28 13:45:41;;;;;;;6.80;1.90;;;;;;;;;;4332078;33;20163;-81
2021/09/28 13:48:08;;;;;;;5.93;1.75;;;;;;;;;;4332036;33;20194;-81
2021/09/28 13:50:34;;;;;;;10.20;1.90;;;;;;;;;;4331612;33;20520;-81
2021/09/28 13:53:03;;;;;;;6.18;1.77;;;;;;;;;;4331329;33;20226;-80
2021/09/28 13:55:28;;;;;;;10.27;1.83;;;;;;;;;;4331139;33;20147;-81
2021/09/28 13:57:54;;;;;;;6.10;1.52;;;;;;;;;;4332600;33;20148;-80
2021/09/28 14:00:19;;;;;;;3.17;1.12;;;;;;;;;;4332766;33;20254;-83
2021/09/28 14:02:47;;;;;;;5.47;1.40;;;;;;;;;;4332104;33;20182;-82
2021/09/28 14:05:16;;;;;;;5.90;1.40;;;;;;;;;;4331764;33;20577;-81
2021/09/28 14:07:41;;;;;;;7.25;1.50;;;;;;;;;;4331398;33;20156;-82
2021/09/28 14:10:07;;;;;;;4.40;1.30;;;;;;;;;;4332121;33;20225;-81
2021/09/28 14:12:32;;;;;;;9.52;1.75;;;;;;;;;;4331779;33;20152;-81
2021/09/28 14:14:58;;;;;;;6.72;1.42;;;;;;;;;;4331653;33;20230;-82
2021/09/28 14:17:23;;;;;;;7.28;1.90;;;;;;;;;;4331567;33;20490;-81
2021/09/28 14:19:48;;;;;;;6.47;1.55;;;;;;;;;;4331905;33;20143;-82
2021/09/28 14:22:21;;;;;;;9.05;1.50;;;;;;;;;;4331842;33;20585;-81
2021/09/28 14:24:46;;;;;;;6.47;1.70;;;;;;;;;;4332236;33;20224;-81
2021/09/28 14:27:12;;;;;;;4.75;1.42;;;;;;;;;;4332293;33;20159;-81
2021/09/28 14:29:43;;;;;;;6.30;1.80;;;;;;;;;;4331574;33;20604;-82
2021/09/28 14:32:09;;;;;;;5.10;1.60;;;;;;;;;;4331723;33;20163;-82
2021/09/28 14:34:34;;;;;;;5.22;1.67;;;;;;;;;;4331739;33;20147;-81
2021/09/28 14:37:02;;;;;;;4.75;1.40;;;;;;;;;;4345014;33;20553;-81
2021/09/28 14:39:30;;;;;;;7.12;1.73;;;;;;;;;;4330571;33;20213;-80
2021/09/28 14:41:55;;;;;;;4.78;1.20;;;;;;;;;;4332277;33;20194;-81
2021/09/28 14:44:20;;;;;;;5.45;1.52;;;;;;;;;;4332352;33;20620;-82
2021/09/28 14:46:46;;;;;;;5.78;1.20;;;;;;;;;;4328620;33;20671;-82
2021/09/28 14:49:11;;;;;;;5.00;1.55;;;;;;;;;;4324069;33;20510;-81
2021/09/28 14:51:37;;;;;;;4.93;1.60;;;;;;;;;;4330630;33;20194;-81
2021/09/28 14:54:02;;;;;;;7.10;1.45;;;;;;;;;;4319853;33;20155;-81
2021/09/28 14:56:28;;;;;;;7.25;1.25;;;;;;;;;;4319562;33;20156;-81
2021/09/28 14:58:57;;;;;;;8.35;1.40;;;;;;;;;;4319670;33;20167;-77
2021/09/28 15:01:23;;;;;;;6.55;1.50;;;;;;;;;;4319812;33;20201;-80
2021/09/28 15:03:48;;;;;;;5.10;1.58;;;;;;;;;;4319890;33;20164;-79
2021/09/28 15:06:17;;;;;;;7.95;1.37;;;;;;;;;;4319711;33;20188;-79
2021/09/28 15:08:42;;;;;;;6.20;1.33;;;;;;;;;;4322680;33;20194;-79
2021/09/28 15:11:09;;;;;;;8.25;1.83;;;;;;;;;;4319701;33;20156;-80
2021/09/28 15:13:34;;;;;;;8.02;1.73;;;;;;;;;;4319600;33;20177;-79
2021/09/28 15:16:02;;;;;;;7.35;1.98;;;;;;;;;;4319577;33;20159;-80
2021/09/28 15:18:27;;;;;;;6.43;1.48;;;;;;;;;;4319439;33;20655;-81
2021/09/28 15:20:52;;;;;;;8.48;1.60;;;;;;;;;;4319298;33;20175;-79
2021/09/28 15:23:26;;;;;;;9.40;2.35;;;;;;;;;;4332538;33;20151;-78
2021/09/28 15:25:52;;;;;;;5.18;1.15;;;;;;;;;;4319754;33;20217;-79
2021/09/28 15:28:18;;;;;;;4.25;1.12;;;;;;;;;;4332422;33;20534;-79
2021/09/28 15:30:43;;;;;;;5.12;1.23;;;;;;;;;;4319240;33;20175;-79
2021/09/28 15:33:09;;;;;;;6.37;1.30;;;;;;;;;;4319003;33;20218;-80
2021/09/28 15:35:34;;;;;;;5.10;1.20;;;;;;;;;;4319141;33;20198;-79
2021/09/28 15:37:59;;;;;;;4.30;1.37;;;;;;;;;;4324337;33;20198;-80
2021/09/28 15:40:25;;;;;;;7.72;1.37;;;;;;;;;;4331259;33;20234;-79
2021/09/28 15:42:50;;;;;;;6.82;1.85;;;;;;;;;;4330933;33;20155;-78
2021/09/28 15:45:19;;;;;;;12.10;1.87;;;;;;;;;;4331351;33;20251;-79
2021/09/28 15:47:44;;;;;;;8.43;1.65;;;;;;;;;;4331107;33;20178;-79
2021/09/28 15:50:10;;;;;;;6.18;1.30;;;;;;;;;;4331742;33;20493;-78
2021/09/28 15:52:36;;;;;;;7.43;1.50;;;;;;;;;;4330807;33;20605;-79
2021/09/28 15:55:02;;;;;;;6.47;1.20;;;;;;;;;;4330630;33;20156;-79
2021/09/28 15:57:27;;;;;;;5.07;1.20;;;;;;;;;;4331072;33;20287;-79
2021/09/28 15:59:52;;;;;;;5.28;1.30;;;;;;;;;;4331774;33;20579;-78
2021/09/28 16:02:18;;;;;;;7.47;1.60;;;;;;;;;;4331358;33;20156;-79
2021/09/28 16:04:44;;;;;;;7.25;1.40;;;;;;;;;;4332582;33;20182;-79
2021/09/28 16:07:09;;;;;;;6.18;1.20;;;;;;;;;;4330929;33;20491;-78
2021/09/28 16:09:35;;;;;;;8.50;1.50;;;;;;;;;;4342288;33;20235;-78
2021/09/28 16:12:00;;;;;;;6.18;1.30;;;;;;;;;;4328404;33;20616;-79
2021/09/28 16:14:25;;;;;;;5.82;2.00;;;;;;;;;;4317947;33;20168;-75
2021/09/28 16:16:53;;;;;;;5.32;1.73;;;;;;;;;;4318197;33;20247;-79
2021/09/28 16:19:18;;;;;;;8.15;1.50;;;;;;;;;;4318498;33;20275;-79
2021/09/28 16:21:43;;;;;;;5.53;1.40;;;;;;;;;;4318018;33;20163;-78
2021/09/28 16:24:09;;;;;;;7.65;1.17;;;;;;;;;;4325077;33;20210;-79
2021/09/28 16:26:34;;;;;;;5.53;1.90;;;;;;;;;;4327132;33;20194;-79
2021/09/28 16:29:00;;;;;;;7.97;1.37;;;;;;;;;;4332847;33;20245;-79
2021/09/28 16:31:29;;;;;;;6.03;1.20;;;;;;;;;;4331881;33;20472;-79
2021/09/28 16:33:54;;;;;;;4.68;1.30;;;;;;;;;;4346526;33;20139;-79
2021/09/28 16:36:19;;;;;;;5.20;1.27;;;;;;;;;;4331115;33;20186;-78
2021/09/28 16:38:45;;;;;;;6.45;1.42;;;;;;;;;;4318773;33;20175;-80
2021/09/28 16:41:11;;;;;;;4.35;1.20;;;;;;;;;;4328762;33;20202;-79
2021/09/28 16:43:38;;;;;;;5.87;1.52;;;;;;;;;;4332419;33;20168;-78
2021/09/28 16:46:16;;;;;;;4.90;1.40;;;;;;;;;;4332869;33;20174;-80
2021/09/28 16:48:41;;;;;;;4.45;1.23;;;;;;;;;;4333188;33;20625;-80
2021/09/28 16:51:07;;;;;;;5.75;1.40;;;;;;;;;;4346119;33;20167;-78
2021/09/28 16:53:32;;;;;;;7.10;1.30;;;;;;;;;;4328686;33;20255;-78
2021/09/28 16:56:04;;;;;;;5.80;1.37;;;;;;;;;;4328710;33;22108;-79
2021/09/28 16:58:29;;;;;;;7.40;1.45;;;;;;;;;;4333488;33;20189;-78
2021/09/28 17:00:55;;;;;;;8.20;1.30;;;;;;;;;;4332602;33;20154;-81
2021/09/28 17:03:20;;;;;;;10.15;1.60;;;;;;;;;;4333019;33;20156;-80
2021/09/28 17:05:45;;;;;;;7.22;1.83;;;;;;;;;;4329695;33;20221;-78
2021/09/28 17:08:19;;;;;;;6.40;1.65;;;;;;;;;;4317756;33;20198;-80
2021/09/28 17:10:47;;;;;;;5.32;1.50;;;;;;;;;;4317932;33;20193;-80
2021/09/28 17:13:13;;;;;;;6.45;1.65;;;;;;;;;;4329467;33;20155;-80
2021/09/28 17:15:39;;;;;;;5.37;1.58;;;;;;;;;;4322469;33;20223;-79
2021/09/28 17:18:04;;;;;;;7.75;1.80;;;;;;;;;;4330467;33;20218;-80
2021/09/28 17:20:33;;;;;;;8.15;1.40;;;;;;;;;;4332507;33;20178;-79
2021/09/28 17:22:58;;;;;;;4.05;1.40;;;;;;;;;;4332472;33;20148;-78
2021/09/28 17:25:24;;;;;;;4.28;1.37;;;;;;;;;;4331306;33;20186;-79
2021/09/28 17:27:52;;;;;;;7.28;1.77;;;;;;;;;;4322116;33;20159;-78
2021/09/28 17:30:18;;;;;;;7.53;1.42;;;;;;;;;;4324841;33;20269;-80
2021/09/28 17:32:44;;;;;;;4.82;2.45;;;;;;;;;;4318208;33;20159;-80
2021/09/28 17:35:14;;;;;;;8.23;1.92;;;;;;;;;;4333022;33;20174;-78
2021/09/28 17:37:45;;;;;;;3.62;1.35;;;;;;;;;;4329434;33;20218;-78
2021/09/28 17:40:12;;;;;;;10.05;1.90;;;;;;;;;;4323389;33;20628;-79
2021/09/28 17:42:38;;;;;;;5.32;1.60;;;;;;;;;;4331310;33;20665;-79
2021/09/28 17:45:04;;;;;;;6.60;1.60;;;;;;;;;;4344638;33;20143;-78
2021/09/28 17:47:29;;;;;;;6.72;1.58;;;;;;;;;;4331855;33;20156;-79
2021/09/28 17:49:55;;;;;;;7.85;1.52;;;;;;;;;;4332056;33;20193;-78
2021/09/28 17:52:20;;;;;;;6.40;1.73;;;;;;;;;;4342925;33;20265;-79
2021/09/28 17:57:15;;;;;;;6.20;1.67;;;;;;;;;;4331923;33;20162;-78
2021/09/28 17:59:41;;;;;;;10.10;2.25;;;;;;;;;;4329190;33;20290;-79
2021/09/28 18:02:07;;;;;;;6.65;1.73;;;;;;;;;;4329350;33;20198;-79
2021/09/28 18:04:35;;;;;;;8.15;1.90;;;;;;;;;;4329379;33;20531;-79
2021/09/28 18:07:04;;;;;;;6.53;1.60;;;;;;;;;;4329438;33;20203;-79
2021/09/28 18:09:29;;;;;;;4.53;1.45;;;;;;;;;;4329390;33;20665;-79